Time;durP1;ratioP1;P1;durP2;ratioP2;P2;SDS_P1;SDS_P2;PMS_P1;PMS_P2;Temp;Humidity;BMP_temperature;BMP_pressure;BME280_temperature;BME280_humidity;BME280_pressure;Samples;Min_cycle;Max_cycle;Signal;HPM_P1;HPM_P2
2023/08/15 00:01:34;;;;;;;18.85;12.82;;;;;;;;;;5030409;28;20037;-65
2023/08/15 00:03:59;;;;;;;16.27;13.20;;;;;;;;;;5031710;28;20029;-64
2023/08/15 00:06:24;;;;;;;18.00;13.77;;;;;;;;;;5029747;28;20040;-64
2023/08/15 00:08:54;;;;;;;15.23;13.63;;;;;;;;;;5031690;28;20531;-65
2023/08/15 00:11:20;;;;;;;15.90;13.65;;;;;;;;;;5029999;28;20087;-64
2023/08/15 00:13:45;;;;;;;14.30;12.77;;;;;;;;;;5031856;28;20416;-64
2023/08/15 00:16:10;;;;;;;17.35;14.10;;;;;;;;;;5030220;28;20057;-64
2023/08/15 00:18:35;;;;;;;14.35;13.05;;;;;;;;;;5030971;28;20041;-64
2023/08/15 00:21:00;;;;;;;19.87;14.30;;;;;;;;;;5030157;28;20060;-63
2023/08/15 00:23:25;;;;;;;20.63;14.80;;;;;;;;;;5031223;28;20033;-64
2023/08/15 00:25:50;;;;;;;17.73;14.80;;;;;;;;;;5029880;28;20025;-63
2023/08/15 00:28:16;;;;;;;16.67;14.13;;;;;;;;;;5031362;28;20076;-64
2023/08/15 00:30:41;;;;;;;15.03;13.53;;;;;;;;;;5030157;28;20036;-63
2023/08/15 00:33:06;;;;;;;16.53;14.70;;;;;;;;;;5030737;28;20074;-64
2023/08/15 00:35:31;;;;;;;16.70;12.87;;;;;;;;;;5031141;28;20033;-64
2023/08/15 00:37:56;;;;;;;21.00;13.37;;;;;;;;;;5029970;28;20032;-64
2023/08/15 00:40:21;;;;;;;12.93;11.68;;;;;;;;;;5030654;28;20108;-64
2023/08/15 00:42:46;;;;;;;16.50;14.57;;;;;;;;;;5029833;28;20044;-64
2023/08/15 00:45:12;;;;;;;16.77;13.53;;;;;;;;;;5031176;28;20043;-64
2023/08/15 00:47:38;;;;;;;18.67;15.47;;;;;;;;;;5029362;28;20041;-64
2023/08/15 00:50:05;;;;;;;15.75;13.73;;;;;;;;;;5031328;28;20045;-64
2023/08/15 00:52:30;;;;;;;18.25;13.27;;;;;;;;;;5029510;28;20128;-64
2023/08/15 00:54:56;;;;;;;19.83;16.05;;;;;;;;;;5030906;28;20109;-64
2023/08/15 00:57:21;;;;;;;18.83;14.17;;;;;;;;;;5029351;28;20057;-64
2023/08/15 00:59:47;;;;;;;14.13;12.52;;;;;;;;;;5029938;28;20514;-64
2023/08/15 01:02:12;;;;;;;16.55;12.77;;;;;;;;;;5028641;28;20034;-64
2023/08/15 01:04:38;;;;;;;15.43;13.02;;;;;;;;;;5031190;28;20025;-64
2023/08/15 01:07:03;;;;;;;17.02;12.98;;;;;;;;;;5029419;28;20500;-65
2023/08/15 01:09:28;;;;;;;16.43;12.67;;;;;;;;;;5030311;28;20104;-65
2023/08/15 01:11:59;;;;;;;16.60;13.23;;;;;;;;;;5029359;28;20029;-65
2023/08/15 01:14:29;;;;;;;17.63;13.85;;;;;;;;;;5031027;28;20083;-64
2023/08/15 01:16:54;;;;;;;15.48;12.70;;;;;;;;;;5029103;28;20125;-64
2023/08/15 01:19:32;;;;;;;15.57;12.43;;;;;;;;;;5030255;28;20128;-64
2023/08/15 01:21:58;;;;;;;16.48;13.85;;;;;;;;;;5029538;28;20404;-64
2023/08/15 01:24:24;;;;;;;14.82;12.82;;;;;;;;;;5030052;28;20025;-64
2023/08/15 01:26:49;;;;;;;17.25;12.85;;;;;;;;;;5049784;28;20040;-66
2023/08/15 01:29:14;;;;;;;19.45;13.23;;;;;;;;;;5061727;28;20029;-66
2023/08/15 01:31:46;;;;;;;17.83;13.15;;;;;;;;;;5040165;28;20029;-66
2023/08/15 01:34:19;;;;;;;22.77;13.82;;;;;;;;;;5030862;28;20049;-66
2023/08/15 01:36:57;;;;;;;17.27;13.63;;;;;;;;;;5029422;28;20055;-66
2023/08/15 01:39:22;;;;;;;;;;;;;;;;;;5030610;28;20025;-66
2023/08/15 01:41:50;;;;;;;19.25;14.68;;;;;;;;;;5029212;28;19955;-66
2023/08/15 01:44:16;;;;;;;15.43;11.88;;;;;;;;;;5030694;28;20104;-66
2023/08/15 01:46:41;;;;;;;16.45;11.32;;;;;;;;;;5028718;28;20122;-66
2023/08/15 01:49:06;;;;;;;20.33;13.57;;;;;;;;;;5029194;28;20029;-64
2023/08/15 01:51:31;;;;;;;28.13;14.53;;;;;;;;;;5029079;28;20452;-64
2023/08/15 01:53:56;;;;;;;17.58;15.80;;;;;;;;;;5030289;28;20480;-64
2023/08/15 01:56:21;;;;;;;15.82;13.40;;;;;;;;;;5028474;28;20025;-64
2023/08/15 01:58:47;;;;;;;18.67;14.20;;;;;;;;;;5030547;28;20017;-64
2023/08/15 02:01:13;;;;;;;14.67;13.27;;;;;;;;;;5028773;28;20397;-63
2023/08/15 02:03:39;;;;;;;17.45;13.70;;;;;;;;;;5030633;28;20420;-64
2023/08/15 02:06:04;;;;;;;28.38;17.40;;;;;;;;;;5029206;28;20044;-65
2023/08/15 02:08:29;;;;;;;18.35;15.07;;;;;;;;;;5030058;28;20059;-65
2023/08/15 02:10:55;;;;;;;15.60;14.00;;;;;;;;;;5029386;28;20074;-63
2023/08/15 02:13:20;;;;;;;15.30;13.70;;;;;;;;;;5032609;28;20460;-64
2023/08/15 02:15:45;;;;;;;17.15;13.35;;;;;;;;;;5032084;28;20148;-63
2023/08/15 02:18:10;;;;;;;18.80;14.98;;;;;;;;;;5033782;28;20461;-64
2023/08/15 02:20:36;;;;;;;18.58;13.23;;;;;;;;;;5032897;28;20021;-63
2023/08/15 02:23:01;;;;;;;19.48;15.23;;;;;;;;;;5033491;28;20361;-65
2023/08/15 02:25:26;;;;;;;16.40;14.17;;;;;;;;;;5033418;28;20083;-65
2023/08/15 02:27:51;;;;;;;17.83;13.43;;;;;;;;;;5032425;28;20033;-69
2023/08/15 02:30:17;;;;;;;19.10;17.13;;;;;;;;;;5033242;28;20075;-64
2023/08/15 02:32:42;;;;;;;26.75;15.07;;;;;;;;;;5032033;28;20056;-64
2023/08/15 02:35:07;;;;;;;20.07;14.90;;;;;;;;;;5033803;28;20018;-64
2023/08/15 02:37:34;;;;;;;16.98;14.13;;;;;;;;;;5031865;28;20444;-64
2023/08/15 02:39:59;;;;;;;17.95;15.00;;;;;;;;;;5033219;28;20523;-66
2023/08/15 02:42:24;;;;;;;24.55;16.58;;;;;;;;;;5031812;28;20091;-64
2023/08/15 02:44:49;;;;;;;18.75;15.13;;;;;;;;;;5033414;28;20379;-64
2023/08/15 02:47:15;;;;;;;21.42;15.68;;;;;;;;;;5031448;28;20037;-64
2023/08/15 02:49:40;;;;;;;20.37;15.57;;;;;;;;;;5033402;28;20013;-64
2023/08/15 02:52:05;;;;;;;14.93;12.80;;;;;;;;;;5031874;28;20048;-64
2023/08/15 02:54:30;;;;;;;19.40;13.47;;;;;;;;;;5032939;28;20021;-64
2023/08/15 02:56:55;;;;;;;15.40;11.88;;;;;;;;;;5031900;28;21003;-64
2023/08/15 02:59:21;;;;;;;16.87;14.60;;;;;;;;;;5032841;28;20112;-65
2023/08/15 03:01:47;;;;;;;14.10;12.47;;;;;;;;;;5031598;28;20033;-64
2023/08/15 03:04:12;;;;;;;14.20;12.18;;;;;;;;;;5032985;28;20108;-64
2023/08/15 03:06:37;;;;;;;16.67;13.00;;;;;;;;;;5031768;28;20441;-64
2023/08/15 03:09:02;;;;;;;15.82;13.82;;;;;;;;;;5032930;28;20021;-64
2023/08/15 03:11:28;;;;;;;17.30;11.25;;;;;;;;;;5031564;28;20099;-64
2023/08/15 03:13:54;;;;;;;14.75;11.90;;;;;;;;;;5032705;28;20096;-63
2023/08/15 03:16:19;;;;;;;13.23;11.87;;;;;;;;;;5030738;28;20117;-63
2023/08/15 03:18:44;;;;;;;16.50;12.18;;;;;;;;;;5032529;28;20463;-63
2023/08/15 03:21:09;;;;;;;14.63;13.20;;;;;;;;;;5031443;28;20088;-63
2023/08/15 03:23:37;;;;;;;16.77;12.63;;;;;;;;;;5031379;28;20476;-63
2023/08/15 03:26:02;;;;;;;13.10;9.98;;;;;;;;;;5031352;28;20033;-63
2023/08/15 03:28:27;;;;;;;17.95;15.00;;;;;;;;;;5032286;28;20376;-64
2023/08/15 03:30:53;;;;;;;11.65;10.25;;;;;;;;;;5031012;28;20476;-64
2023/08/15 03:33:18;;;;;;;13.80;12.30;;;;;;;;;;5032584;28;20045;-65
2023/08/15 03:35:45;;;;;;;13.85;11.90;;;;;;;;;;5031159;28;20518;-63
2023/08/15 03:38:10;;;;;;;14.65;13.23;;;;;;;;;;5032465;28;20033;-64
2023/08/15 03:40:35;;;;;;;16.58;12.73;;;;;;;;;;5032552;28;20071;-64
2023/08/15 03:43:00;;;;;;;18.67;13.18;;;;;;;;;;5030619;28;20488;-63
2023/08/15 03:45:26;;;;;;;15.55;13.02;;;;;;;;;;5031792;28;20108;-65
2023/08/15 03:47:51;;;;;;;13.32;11.77;;;;;;;;;;5030666;28;20037;-64
2023/08/15 03:50:16;;;;;;;15.75;14.05;;;;;;;;;;5032069;28;20487;-64
2023/08/15 03:52:41;;;;;;;20.23;13.07;;;;;;;;;;5030538;28;20037;-64
2023/08/15 03:55:07;;;;;;;16.58;11.82;;;;;;;;;;5032142;28;20017;-64
2023/08/15 03:57:32;;;;;;;15.05;12.73;;;;;;;;;;5030215;28;20370;-65
2023/08/15 03:59:57;;;;;;;15.52;11.30;;;;;;;;;;5031834;28;20096;-65
2023/08/15 04:02:22;;;;;;;18.83;12.03;;;;;;;;;;5030489;28;20408;-65
2023/08/15 04:04:47;;;;;;;19.38;12.70;;;;;;;;;;5032166;28;20029;-65
2023/08/15 04:07:13;;;;;;;14.83;11.53;;;;;;;;;;5029965;28;20045;-68
2023/08/15 04:09:38;;;;;;;14.35;11.73;;;;;;;;;;5032118;28;20021;-66
2023/08/15 04:12:03;;;;;;;14.32;11.27;;;;;;;;;;5030471;28;20038;-65
2023/08/15 04:14:28;;;;;;;14.32;11.00;;;;;;;;;;5030956;28;20481;-64
2023/08/15 04:16:54;;;;;;;17.27;12.07;;;;;;;;;;5030226;28;20033;-64
2023/08/15 04:19:19;;;;;;;17.67;11.10;;;;;;;;;;5031323;28;20069;-64
2023/08/15 04:21:45;;;;;;;14.30;10.40;;;;;;;;;;5030066;28;20452;-64
2023/08/15 04:24:10;;;;;;;18.65;11.80;;;;;;;;;;5031725;28;20030;-64
2023/08/15 04:26:35;;;;;;;17.83;13.13;;;;;;;;;;5029897;28;20120;-68
2023/08/15 04:29:00;;;;;;;18.57;11.07;;;;;;;;;;5030936;28;20456;-61
2023/08/15 04:31:25;;;;;;;12.00;10.40;;;;;;;;;;5029522;28;20029;-61
2023/08/15 04:33:50;;;;;;;17.35;12.65;;;;;;;;;;5031518;28;20100;-61
2023/08/15 04:36:16;;;;;;;18.20;11.60;;;;;;;;;;5028444;28;20040;-66
2023/08/15 04:38:41;;;;;;;15.52;12.70;;;;;;;;;;5030211;28;20551;-61
2023/08/15 04:41:06;;;;;;;14.03;11.03;;;;;;;;;;5029437;28;20041;-61
2023/08/15 04:43:31;;;;;;;14.30;11.80;;;;;;;;;;5030012;28;20053;-61
2023/08/15 04:45:56;;;;;;;12.32;10.75;;;;;;;;;;5029937;28;20043;-61
2023/08/15 04:48:23;;;;;;;13.95;10.95;;;;;;;;;;5030898;28;20468;-61
2023/08/15 04:50:48;;;;;;;14.00;11.13;;;;;;;;;;5029839;28;20049;-61
2023/08/15 04:53:13;;;;;;;21.77;11.67;;;;;;;;;;5030875;28;20045;-61
2023/08/15 04:55:38;;;;;;;14.32;12.70;;;;;;;;;;5029157;28;20020;-61
2023/08/15 04:58:03;;;;;;;17.38;10.38;;;;;;;;;;5030802;28;20021;-60
2023/08/15 05:00:28;;;;;;;18.90;11.67;;;;;;;;;;5030232;28;20017;-61
2023/08/15 05:02:54;;;;;;;11.60;10.30;;;;;;;;;;5027827;28;20072;-61
2023/08/15 05:05:19;;;;;;;14.33;10.20;;;;;;;;;;5029730;28;20025;-60
2023/08/15 05:07:44;;;;;;;19.23;10.60;;;;;;;;;;5028830;28;20099;-60
2023/08/15 05:10:09;;;;;;;16.40;9.50;;;;;;;;;;5029729;28;20480;-60
2023/08/15 05:12:34;;;;;;;11.70;9.02;;;;;;;;;;5028445;28;20038;-65
2023/08/15 05:14:59;;;;;;;10.47;8.10;;;;;;;;;;5030543;28;20022;-60
2023/08/15 05:17:25;;;;;;;24.02;11.80;;;;;;;;;;5028434;28;20456;-60
2023/08/15 05:19:50;;;;;;;22.27;11.80;;;;;;;;;;5028424;28;20133;-59
2023/08/15 05:22:16;;;;;;;9.60;8.43;;;;;;;;;;5028203;28;20111;-60
2023/08/15 05:24:41;;;;;;;8.45;7.00;;;;;;;;;;5028787;28;20399;-59
2023/08/15 05:27:06;;;;;;;17.00;9.03;;;;;;;;;;5027624;28;20394;-60
2023/08/15 05:29:31;;;;;;;9.07;6.43;;;;;;;;;;5029893;28;20037;-60
2023/08/15 05:31:56;;;;;;;13.67;6.37;;;;;;;;;;5028038;28;20025;-60
2023/08/15 05:34:21;;;;;;;10.50;6.93;;;;;;;;;;5029235;28;20025;-60
2023/08/15 05:36:46;;;;;;;14.88;6.35;;;;;;;;;;5049108;28;20447;-60
2023/08/15 05:39:12;;;;;;;18.13;7.57;;;;;;;;;;5069958;28;20052;-60
2023/08/15 05:41:37;;;;;;;13.43;7.05;;;;;;;;;;5067666;28;20036;-60
2023/08/15 05:44:02;;;;;;;10.70;7.78;;;;;;;;;;5069809;28;20026;-61
2023/08/15 05:46:27;;;;;;;8.53;6.17;;;;;;;;;;5068448;28;20041;-60
2023/08/15 05:48:52;;;;;;;8.17;6.03;;;;;;;;;;5069120;28;20459;-60
2023/08/15 05:51:17;;;;;;;16.73;6.38;;;;;;;;;;5045571;28;20121;-60
2023/08/15 05:53:43;;;;;;;15.17;7.47;;;;;;;;;;5033143;28;20010;-60
2023/08/15 05:56:08;;;;;;;10.43;6.80;;;;;;;;;;5031293;28;20396;-60
2023/08/15 05:58:33;;;;;;;10.55;5.03;;;;;;;;;;5032626;28;20049;-61
2023/08/15 06:00:58;;;;;;;22.15;8.60;;;;;;;;;;5032313;28;20080;-60
2023/08/15 06:03:23;;;;;;;10.23;6.20;;;;;;;;;;5032095;28;20649;-60
2023/08/15 06:05:49;;;;;;;9.97;6.07;;;;;;;;;;5030359;28;20961;-60
2023/08/15 06:08:14;;;;;;;7.45;6.10;;;;;;;;;;5029660;28;21078;-61
2023/08/15 06:10:39;;;;;;;11.73;6.40;;;;;;;;;;5029730;28;20029;-60
2023/08/15 06:13:04;;;;;;;6.23;4.67;;;;;;;;;;5031897;28;20018;-60
2023/08/15 06:15:29;;;;;;;11.87;6.63;;;;;;;;;;5033205;28;20048;-66
2023/08/15 06:17:55;;;;;;;9.18;6.22;;;;;;;;;;5031176;28;20819;-61
2023/08/15 06:20:20;;;;;;;10.43;6.65;;;;;;;;;;5032398;28;20424;-62
2023/08/15 06:22:45;;;;;;;13.40;7.43;;;;;;;;;;5031688;28;20041;-61
2023/08/15 06:25:10;;;;;;;13.50;6.07;;;;;;;;;;5033395;28;20423;-61
2023/08/15 06:27:36;;;;;;;10.05;6.38;;;;;;;;;;5030935;28;20456;-60
2023/08/15 06:30:01;;;;;;;9.90;6.70;;;;;;;;;;5033478;28;20065;-61
2023/08/15 06:32:33;;;;;;;19.17;6.78;;;;;;;;;;5030932;28;20047;-61
2023/08/15 06:34:59;;;;;;;13.73;6.20;;;;;;;;;;5033064;28;20025;-61
2023/08/15 06:37:24;;;;;;;15.35;7.55;;;;;;;;;;5046829;28;20033;-61
2023/08/15 06:39:49;;;;;;;12.33;6.43;;;;;;;;;;5053275;28;20032;-61
2023/08/15 06:42:15;;;;;;;11.50;6.82;;;;;;;;;;5037180;28;20064;-61
2023/08/15 06:44:43;;;;;;;9.73;7.60;;;;;;;;;;5033376;28;20021;-61
2023/08/15 06:47:08;;;;;;;;;;;;;;;;;;5029046;28;20030;-60
2023/08/15 06:49:34;;;;;;;11.10;6.40;;;;;;;;;;5032118;28;20437;-60
2023/08/15 06:51:59;;;;;;;8.48;7.10;;;;;;;;;;5031559;28;20032;-66
2023/08/15 06:54:24;;;;;;;16.03;6.93;;;;;;;;;;5032608;28;20017;-64
2023/08/15 06:56:49;;;;;;;10.85;7.50;;;;;;;;;;5030226;28;20125;-60
2023/08/15 06:59:14;;;;;;;9.65;6.30;;;;;;;;;;5031909;28;20013;-60
2023/08/15 07:01:39;;;;;;;11.95;7.10;;;;;;;;;;5031371;28;20552;-60
2023/08/15 07:04:06;;;;;;;14.53;6.00;;;;;;;;;;5032769;28;20066;-60
2023/08/15 07:06:32;;;;;;;11.82;6.72;;;;;;;;;;5031027;28;20049;-60
2023/08/15 07:08:57;;;;;;;18.45;6.40;;;;;;;;;;5032542;28;20477;-60
2023/08/15 07:11:22;;;;;;;12.93;7.70;;;;;;;;;;5030937;28;20102;-60
2023/08/15 07:13:47;;;;;;;14.93;7.97;;;;;;;;;;5032103;28;20024;-60
2023/08/15 07:16:12;;;;;;;20.67;8.43;;;;;;;;;;5030906;28;20452;-60
2023/08/15 07:18:37;;;;;;;14.52;7.03;;;;;;;;;;5031481;28;20065;-60
2023/08/15 07:21:03;;;;;;;13.63;6.35;;;;;;;;;;5030738;28;20033;-60
2023/08/15 07:23:28;;;;;;;10.80;6.00;;;;;;;;;;5031695;28;20028;-60
2023/08/15 07:25:53;;;;;;;13.90;5.80;;;;;;;;;;5030628;28;20033;-62
2023/08/15 07:28:18;;;;;;;10.00;6.27;;;;;;;;;;5031413;28;20451;-60
2023/08/15 07:30:45;;;;;;;11.63;6.03;;;;;;;;;;5030515;28;20456;-61
2023/08/15 07:33:10;;;;;;;31.30;6.18;;;;;;;;;;5032028;28;20768;-60
2023/08/15 07:35:35;;;;;;;8.90;5.07;;;;;;;;;;5030112;28;20036;-60
2023/08/15 07:38:01;;;;;;;9.55;4.15;;;;;;;;;;5031982;28;20010;-60
2023/08/15 07:40:26;;;;;;;7.25;5.25;;;;;;;;;;5031903;28;20515;-60
2023/08/15 07:42:53;;;;;;;9.20;4.87;;;;;;;;;;5030369;28;20033;-60
2023/08/15 07:45:21;;;;;;;10.05;4.13;;;;;;;;;;5031998;28;20029;-61
2023/08/15 07:47:51;;;;;;;10.07;4.45;;;;;;;;;;5030028;28;20105;-60
2023/08/15 07:50:22;;;;;;;16.02;5.78;;;;;;;;;;5030984;28;20022;-60
2023/08/15 07:52:47;;;;;;;9.10;5.15;;;;;;;;;;5030419;28;20033;-61
2023/08/15 07:55:12;;;;;;;6.82;3.72;;;;;;;;;;5031057;28;20516;-60
2023/08/15 07:57:38;;;;;;;16.63;4.00;;;;;;;;;;5029674;28;20037;-61
2023/08/15 08:00:03;;;;;;;5.80;3.20;;;;;;;;;;5031182;28;20029;-64
2023/08/15 08:02:28;;;;;;;7.97;2.97;;;;;;;;;;5029560;28;20523;-61
2023/08/15 08:04:54;;;;;;;7.13;3.47;;;;;;;;;;5029714;28;20619;-61
2023/08/15 08:07:19;;;;;;;4.68;3.42;;;;;;;;;;5043888;28;20067;-61
2023/08/15 08:09:45;;;;;;;10.40;3.35;;;;;;;;;;5057208;28;20072;-61
2023/08/15 08:12:10;;;;;;;8.53;4.10;;;;;;;;;;5048201;28;20037;-61
2023/08/15 08:14:35;;;;;;;11.48;5.30;;;;;;;;;;5051093;28;20407;-61
2023/08/15 08:17:00;;;;;;;7.45;3.53;;;;;;;;;;5049864;28;20046;-61
2023/08/15 08:19:26;;;;;;;5.68;3.47;;;;;;;;;;5049858;28;20116;-61
2023/08/15 08:21:51;;;;;;;5.95;3.33;;;;;;;;;;5045422;28;20454;-61
2023/08/15 08:24:16;;;;;;;8.47;3.27;;;;;;;;;;5051042;28;20032;-60
2023/08/15 08:26:41;;;;;;;7.27;3.23;;;;;;;;;;5035216;28;20570;-61
2023/08/15 08:29:06;;;;;;;10.50;2.90;;;;;;;;;;5050816;28;20530;-61
2023/08/15 08:31:31;;;;;;;11.23;4.70;;;;;;;;;;5049104;28;20443;-62
2023/08/15 08:33:57;;;;;;;10.38;3.95;;;;;;;;;;5050052;28;20119;-61
2023/08/15 08:36:22;;;;;;;4.70;2.53;;;;;;;;;;5048842;28;20489;-61
2023/08/15 08:38:47;;;;;;;8.63;2.03;;;;;;;;;;5050484;28;20032;-61
2023/08/15 08:41:13;;;;;;;5.47;2.03;;;;;;;;;;5048349;28;20112;-60
2023/08/15 08:43:39;;;;;;;7.88;2.78;;;;;;;;;;5050577;28;20033;-61
2023/08/15 08:46:04;;;;;;;2.50;1.90;;;;;;;;;;5048960;28;20634;-61
2023/08/15 08:48:31;;;;;;;8.40;3.33;;;;;;;;;;5050072;28;20040;-61
2023/08/15 08:50:57;;;;;;;5.25;2.55;;;;;;;;;;5049293;28;20044;-62
2023/08/15 08:53:22;;;;;;;5.32;2.33;;;;;;;;;;5050323;28;20013;-60
2023/08/15 08:55:48;;;;;;;5.47;3.67;;;;;;;;;;5048520;28;20048;-60
2023/08/15 08:58:13;;;;;;;4.35;2.08;;;;;;;;;;5050029;28;20078;-60
2023/08/15 09:00:40;;;;;;;7.13;2.57;;;;;;;;;;5044935;28;20063;-60
2023/08/15 09:03:05;;;;;;;20.55;3.03;;;;;;;;;;5034298;28;20024;-60
2023/08/15 09:05:30;;;;;;;3.03;2.73;;;;;;;;;;5049932;28;20395;-63
2023/08/15 09:07:56;;;;;;;4.77;2.90;;;;;;;;;;5048547;28;20553;-60
2023/08/15 09:10:21;;;;;;;11.27;3.65;;;;;;;;;;5049011;28;20027;-60
2023/08/15 09:12:47;;;;;;;5.72;3.08;;;;;;;;;;5048505;28;20118;-60
2023/08/15 09:15:12;;;;;;;10.05;3.38;;;;;;;;;;5049380;28;20025;-60
2023/08/15 09:17:38;;;;;;;4.45;2.78;;;;;;;;;;5048232;28;20033;-60
2023/08/15 09:20:12;;;;;;;6.30;3.22;;;;;;;;;;5061795;28;20029;-60
2023/08/15 09:22:45;;;;;;;3.90;1.92;;;;;;;;;;5053863;28;20064;-60
2023/08/15 09:25:11;;;;;;;4.90;2.83;;;;;;;;;;5054058;28;20480;-60
2023/08/15 09:27:37;;;;;;;4.68;3.00;;;;;;;;;;5052451;28;20037;-61
2023/08/15 09:30:12;;;;;;;4.80;2.30;;;;;;;;;;5054000;28;20533;-61
2023/08/15 09:32:38;;;;;;;8.38;3.42;;;;;;;;;;5052433;28;20094;-60
2023/08/15 09:35:03;;;;;;;5.05;2.70;;;;;;;;;;5053751;28;20021;-60
2023/08/15 09:37:28;;;;;;;4.40;2.50;;;;;;;;;;5051889;28;20040;-60
2023/08/15 09:39:54;;;;;;;10.23;2.97;;;;;;;;;;5053572;28;20013;-60
2023/08/15 09:42:22;;;;;;;6.60;2.15;;;;;;;;;;5052259;28;20461;-65
2023/08/15 09:44:49;;;;;;;3.88;2.67;;;;;;;;;;5053851;28;20063;-60
2023/08/15 09:47:14;;;;;;;8.98;3.15;;;;;;;;;;5052228;28;20039;-60
2023/08/15 09:49:41;;;;;;;3.58;1.70;;;;;;;;;;5054091;28;20637;-61
2023/08/15 09:52:07;;;;;;;4.70;2.53;;;;;;;;;;5052634;28;20044;-60
2023/08/15 09:54:33;;;;;;;7.35;2.20;;;;;;;;;;5053392;28;20025;-61
2023/08/15 09:56:58;;;;;;;6.50;2.58;;;;;;;;;;5052065;28;20044;-61
2023/08/15 09:59:23;;;;;;;5.72;2.28;;;;;;;;;;5053370;28;20474;-61
2023/08/15 10:01:51;;;;;;;10.40;3.03;;;;;;;;;;5052068;28;20045;-61
2023/08/15 10:04:17;;;;;;;6.93;2.50;;;;;;;;;;5053652;28;20159;-61
2023/08/15 10:06:43;;;;;;;5.57;2.28;;;;;;;;;;5051973;28;20596;-60
2023/08/15 10:09:09;;;;;;;6.53;2.67;;;;;;;;;;5053325;28;20407;-61
2023/08/15 10:11:36;;;;;;;9.20;2.92;;;;;;;;;;5052359;28;20111;-61
2023/08/15 10:14:02;;;;;;;3.95;3.03;;;;;;;;;;5053858;28;20013;-60
2023/08/15 10:16:27;;;;;;;3.63;2.35;;;;;;;;;;5051965;28;20036;-61
2023/08/15 10:18:54;;;;;;;6.43;2.63;;;;;;;;;;5053581;28;20442;-61
2023/08/15 10:21:19;;;;;;;5.38;3.65;;;;;;;;;;5052291;28;20807;-60
2023/08/15 10:23:44;;;;;;;6.73;2.83;;;;;;;;;;5053252;28;20025;-61
2023/08/15 10:26:10;;;;;;;7.57;2.63;;;;;;;;;;5051638;28;20052;-61
2023/08/15 10:28:35;;;;;;;7.22;3.05;;;;;;;;;;5053553;28;20456;-60
2023/08/15 10:31:00;;;;;;;7.05;2.85;;;;;;;;;;5051291;28;20120;-60
2023/08/15 10:33:28;;;;;;;6.87;3.37;;;;;;;;;;5051865;28;20017;-60
2023/08/15 10:35:54;;;;;;;9.00;4.07;;;;;;;;;;5051844;28;20017;-60
2023/08/15 10:38:30;;;;;;;5.93;3.08;;;;;;;;;;5053245;28;20024;-61
2023/08/15 10:41:01;;;;;;;13.00;4.28;;;;;;;;;;5051871;28;20040;-60
2023/08/15 10:43:28;;;;;;;6.07;3.33;;;;;;;;;;5053254;28;20059;-60
2023/08/15 10:45:55;;;;;;;5.18;2.78;;;;;;;;;;5052032;28;20017;-60
2023/08/15 10:48:43;;;;;;;8.10;2.57;;;;;;;;;;5052571;28;20017;-60
2023/08/15 10:51:38;;;;;;;7.40;2.58;;;;;;;;;;5046063;28;20048;-61
2023/08/15 10:54:04;;;;;;;4.40;2.45;;;;;;;;;;5043955;28;20163;-61
2023/08/15 10:56:31;;;;;;;5.78;2.78;;;;;;;;;;5051723;28;20033;-60
2023/08/15 10:58:57;;;;;;;7.18;3.75;;;;;;;;;;5053260;28;20094;-60
2023/08/15 11:01:23;;;;;;;7.78;3.65;;;;;;;;;;5051157;28;20057;-60
2023/08/15 11:03:49;;;;;;;8.90;2.95;;;;;;;;;;5052958;28;20028;-60
2023/08/15 11:06:15;;;;;;;8.23;2.67;;;;;;;;;;5051557;28;20403;-60
2023/08/15 11:08:44;;;;;;;4.55;2.78;;;;;;;;;;5052574;28;20017;-60
2023/08/15 11:11:10;;;;;;;6.53;2.97;;;;;;;;;;5051783;28;20056;-60
2023/08/15 11:13:42;;;;;;;10.18;3.30;;;;;;;;;;5052766;28;20468;-60
2023/08/15 11:16:08;;;;;;;5.60;2.80;;;;;;;;;;5051168;28;20037;-60
2023/08/15 11:18:33;;;;;;;8.65;3.95;;;;;;;;;;5052223;28;20124;-60
2023/08/15 11:21:00;;;;;;;12.10;4.18;;;;;;;;;;5051469;28;20029;-60
2023/08/15 11:23:28;;;;;;;4.72;2.72;;;;;;;;;;5052106;28;20095;-61
2023/08/15 11:25:53;;;;;;;4.55;2.30;;;;;;;;;;5051145;28;20021;-60
2023/08/15 11:28:18;;;;;;;6.30;2.30;;;;;;;;;;5052439;28;20013;-61
2023/08/15 11:30:43;;;;;;;12.73;3.55;;;;;;;;;;5050617;28;20091;-60
2023/08/15 11:33:09;;;;;;;3.80;2.10;;;;;;;;;;5052551;28;20021;-61
2023/08/15 11:35:34;;;;;;;3.83;1.50;;;;;;;;;;5051625;28;20451;-60
2023/08/15 11:38:00;;;;;;;4.55;2.38;;;;;;;;;;5030463;28;20034;-60
2023/08/15 11:40:25;;;;;;;14.02;2.28;;;;;;;;;;5032317;28;20469;-60
2023/08/15 11:42:51;;;;;;;4.40;2.30;;;;;;;;;;5030937;28;20041;-60
2023/08/15 11:45:17;;;;;;;3.92;2.08;;;;;;;;;;5031243;28;20021;-61
2023/08/15 11:47:56;;;;;;;8.93;2.90;;;;;;;;;;5030744;28;20141;-60
2023/08/15 11:50:22;;;;;;;6.60;2.47;;;;;;;;;;5031781;28;20481;-60
2023/08/15 11:52:48;;;;;;;5.68;2.72;;;;;;;;;;5030477;28;20038;-60
2023/08/15 11:55:13;;;;;;;12.15;2.45;;;;;;;;;;5032066;28;20148;-60
2023/08/15 11:57:39;;;;;;;8.40;3.07;;;;;;;;;;5030604;28;20516;-60
2023/08/15 12:00:05;;;;;;;5.10;1.98;;;;;;;;;;5031998;28;20416;-60
2023/08/15 12:02:32;;;;;;;4.63;2.22;;;;;;;;;;5029981;28;20523;-60
2023/08/15 12:05:06;;;;;;;3.50;2.20;;;;;;;;;;5033255;28;20036;-61
2023/08/15 12:07:32;;;;;;;4.85;2.38;;;;;;;;;;5053888;28;20044;-61
2023/08/15 12:09:58;;;;;;;7.80;2.78;;;;;;;;;;5060070;28;20036;-61
2023/08/15 12:12:24;;;;;;;4.57;2.23;;;;;;;;;;5050018;28;20048;-61
2023/08/15 12:14:50;;;;;;;5.07;2.83;;;;;;;;;;5049749;28;20013;-61
2023/08/15 12:17:15;;;;;;;7.47;2.25;;;;;;;;;;5049466;28;20064;-60
2023/08/15 12:19:41;;;;;;;7.85;2.83;;;;;;;;;;5051183;28;20040;-61
2023/08/15 12:22:06;;;;;;;8.50;2.60;;;;;;;;;;5050166;28;20056;-61
2023/08/15 12:24:31;;;;;;;4.73;2.17;;;;;;;;;;5049690;28;20098;-61
2023/08/15 12:26:56;;;;;;;6.47;2.47;;;;;;;;;;5049478;28;20444;-60
2023/08/15 12:29:21;;;;;;;6.90;3.50;;;;;;;;;;5049338;28;20560;-61
2023/08/15 12:31:46;;;;;;;7.63;2.95;;;;;;;;;;5046885;28;20091;-61
2023/08/15 12:34:12;;;;;;;4.77;2.20;;;;;;;;;;5048238;28;20020;-60
2023/08/15 12:36:37;;;;;;;5.87;2.00;;;;;;;;;;5046838;28;20033;-60
2023/08/15 12:39:03;;;;;;;9.63;2.63;;;;;;;;;;5049110;28;20119;-60
2023/08/15 12:41:28;;;;;;;7.35;4.55;;;;;;;;;;5048043;28;20124;-61
2023/08/15 12:43:54;;;;;;;9.43;3.60;;;;;;;;;;5049790;28;20103;-61
2023/08/15 12:46:19;;;;;;;8.52;2.53;;;;;;;;;;5048370;28;20509;-60
2023/08/15 12:48:45;;;;;;;13.55;3.75;;;;;;;;;;5051315;28;20016;-61
2023/08/15 12:51:10;;;;;;;5.93;1.87;;;;;;;;;;5049957;28;20691;-61
2023/08/15 12:53:36;;;;;;;4.30;2.70;;;;;;;;;;5050516;28;20427;-61
2023/08/15 12:56:01;;;;;;;8.60;3.47;;;;;;;;;;5049289;28;20158;-61
2023/08/15 12:58:26;;;;;;;23.17;3.88;;;;;;;;;;5050977;28;20020;-60
2023/08/15 13:00:51;;;;;;;7.03;3.05;;;;;;;;;;5049338;28;20468;-61
2023/08/15 13:03:18;;;;;;;11.32;5.13;;;;;;;;;;5050747;28;20111;-60
2023/08/15 13:05:43;;;;;;;10.73;3.42;;;;;;;;;;5048795;28;20040;-61
2023/08/15 13:08:08;;;;;;;9.03;2.70;;;;;;;;;;5050529;28;20029;-61
2023/08/15 13:10:33;;;;;;;6.57;3.25;;;;;;;;;;5050623;28;20443;-60
2023/08/15 13:12:59;;;;;;;5.18;3.40;;;;;;;;;;5048186;28;20040;-61
2023/08/15 13:15:24;;;;;;;8.47;2.87;;;;;;;;;;5050188;28;20083;-61
2023/08/15 13:17:49;;;;;;;4.20;2.50;;;;;;;;;;5048952;28;20117;-61
2023/08/15 13:20:14;;;;;;;12.00;3.40;;;;;;;;;;5047454;28;20053;-61
2023/08/15 13:22:40;;;;;;;3.03;2.63;;;;;;;;;;5048555;28;20090;-61
2023/08/15 13:25:06;;;;;;;6.93;3.70;;;;;;;;;;5065837;28;20395;-61
2023/08/15 13:27:31;;;;;;;8.40;4.20;;;;;;;;;;5033109;28;20053;-61
2023/08/15 13:29:56;;;;;;;11.48;3.90;;;;;;;;;;5030395;28;20017;-62
2023/08/15 13:32:21;;;;;;;4.15;2.85;;;;;;;;;;5043540;28;20033;-61
2023/08/15 13:34:47;;;;;;;6.50;3.47;;;;;;;;;;5050631;28;20029;-61
2023/08/15 13:37:12;;;;;;;6.97;3.30;;;;;;;;;;5035575;28;20497;-61
2023/08/15 13:39:37;;;;;;;4.93;2.20;;;;;;;;;;5030528;28;20026;-61
2023/08/15 13:42:03;;;;;;;5.70;2.87;;;;;;;;;;5041222;28;20057;-61
2023/08/15 13:44:29;;;;;;;11.02;3.25;;;;;;;;;;5050198;28;20067;-61
2023/08/15 13:46:54;;;;;;;6.35;3.13;;;;;;;;;;5038334;28;20034;-61
2023/08/15 13:49:19;;;;;;;10.53;3.17;;;;;;;;;;5030419;28;20393;-60
2023/08/15 13:51:45;;;;;;;10.55;4.70;;;;;;;;;;5038153;28;20045;-60
2023/08/15 13:54:10;;;;;;;4.60;2.80;;;;;;;;;;5050389;28;20669;-61
2023/08/15 13:56:35;;;;;;;2.45;2.25;;;;;;;;;;5040561;28;20034;-60
2023/08/15 13:59:00;;;;;;;10.10;3.37;;;;;;;;;;5030184;28;20032;-60
2023/08/15 14:01:25;;;;;;;3.50;1.98;;;;;;;;;;5035535;28;20171;-61
2023/08/15 14:03:50;;;;;;;5.97;2.97;;;;;;;;;;5050329;28;20032;-60
2023/08/15 14:06:15;;;;;;;7.85;3.35;;;;;;;;;;5042813;28;20034;-61
2023/08/15 14:08:41;;;;;;;6.47;3.25;;;;;;;;;;5030881;28;20022;-61
2023/08/15 14:11:06;;;;;;;4.23;3.83;;;;;;;;;;5032575;28;20040;-60
2023/08/15 14:13:32;;;;;;;12.47;3.07;;;;;;;;;;5033000;28;20307;-61
2023/08/15 14:15:57;;;;;;;6.93;3.20;;;;;;;;;;5039361;28;20405;-61
2023/08/15 14:18:23;;;;;;;6.17;3.83;;;;;;;;;;5032426;28;20095;-61
2023/08/15 14:20:48;;;;;;;4.78;2.70;;;;;;;;;;5032481;28;20057;-61
2023/08/15 14:23:13;;;;;;;8.00;3.50;;;;;;;;;;5032106;28;20026;-61